Huvudsida
METAR-TAF:

METAR-TAF

Flygplatser :

Wadi ad-Dawasir, Saudiarabien

latitud: 20-30N, longitud: 045-12E, höjd: 624 m

Aktuellt väderrapport

Denna rapport gjordes för 1 timme och 14 minuter sedan, klockan 20:00 UTC
Vind 8 kt från ost
Temperatur 32°C
Fuktighet 34%
Tryck 1013 hPa
Sikt 10 km eller mer
Inga moln under 1 500 m eller inga cumulonimbus

METAR: OEWD 212000Z 10008KT CAVOK 32/14 Q1013 NOSIG

Tid: 00:14 (21:14 UTC)

Väderprognos

Denna rapport gjordes för 10 timmar och 14 minuter sedan, klockan 11:00 UTC
Prognos gäller från 21 kl. 12 UTC till 22 kl. 18 UTC
Vind 12 kt från ost/nordost
Sikt: 7000 m
Få moln på en höjd av 3500 ft
Spridda moln på en höjd av 8000 ft
Temporärt
från 21 kl. 12 UTC till 21 kl. 24 UTC
Sikt: 3500 m
Få moln på en höjd av 3000 ft, Cumulonimbus.
Spridda moln på en höjd av 3500 ft
högt damm drev, åska, regn

TAF: OEWD 211100Z 2112/2218 06012KT 7000 FEW035 SCT080 TEMPO 2112/2124 3500 BLDU TSRA FEW030CB SCT035

Aktuella väderrapporter och prognoser från 4000 flygplatser (METAR- och TAF-rapporter).

De tillgängliga stationerna syns som gula och röda prickar på kartan.

För musen över prickarna för att se namnen på stationerna.

Klicka sedan för att få väderrapporter och prognoser.

För att ändra kartan: Klicka på de gröna knapparna med ett svart kors på för att zooma in; den gröna knappen med ett streck på för att zooma ut; eller på de gröna pilarna för angränsande kartor.


METAR-TAF: